< < Back
Terminal Aerodrome Forecast


Current Version              Previous Versions:   1  2  3  4  5  6  7  8  9  

Terminal Aerodrome Forecast

430
FTUS42 KMLB 241120
TAFMCO
TAF
KMCO 241120Z 2412/2512 02007KT P6SM SCT025 SCT250
     FM241400 04010KT P6SM VCSH SCT035 BKN080
     FM241600 05012G18KT P6SM VCSH SCT040 BKN120
      TEMPO 2416/2419 TS BKN040CB BKN070
     FM242000 05015G22KT P6SM VCTS SCT045CB SCT070 BKN250=

Latest METAR

338
SAUS70 KWBC 241300 RRC
MTRMCO
METAR KMCO 241253Z 06007KT 10SM FEW015 SCT065 BKN280 28/25 A3013 RMK AO2
SLP200 T02780250


USA.gov is the U.S. government's official web portal to all federal, state and local government web resources and services.